Terminal Aerodrome Forecast
Issued by NWS Paducah, KY

Home | Current Version | Previous Version | Text Only | Print | Product List | Glossary On
Versions: 1 2 3 4 5 6 7 8 9 10 11 12 13 14 15 16 17
000
FTUS43 KPAH 131700
TAFEVV
TAF
KEVV 131720Z 1318/1418 20015G30KT P6SM SCT045 BKN150
     FM140100 20015G30KT P6SM VCTS BKN050CB
      TEMPO 1403/1407 VRB20G35KT 2SM +TSRA BR BKN010CB
     FM140700 20015G25KT P6SM BKN045 PROB30 1407/1413 -TSRA BKN030CB
     FM141300 33012G22KT P6SM VCSH OVC015=

USA.gov is the U.S. government's official web portal to all federal, state and local government web resources and services.